sensor_id;sensor_type;location;lat;lon;timestamp;pressure;altitude;pressure_sealevel;temperature
80496;BMP180;69819;48.798;11.770;2023-09-12T00:00:01;97286.00;;;20.30
80496;BMP180;69819;48.798;11.770;2023-09-12T00:02:27;97288.00;;;20.30
80496;BMP180;69819;48.798;11.770;2023-09-12T00:04:54;97288.00;;;20.20
80496;BMP180;69819;48.798;11.770;2023-09-12T00:07:20;97292.00;;;20.20
80496;BMP180;69819;48.798;11.770;2023-09-12T00:09:46;97294.00;;;20.20
80496;BMP180;69819;48.798;11.770;2023-09-12T00:12:15;97280.00;;;20.10
80496;BMP180;69819;48.798;11.770;2023-09-12T00:14:41;97285.00;;;20.10
80496;BMP180;69819;48.798;11.770;2023-09-12T00:17:07;97271.00;;;20.10
80496;BMP180;69819;48.798;11.770;2023-09-12T00:19:33;97248.00;;;20.10
80496;BMP180;69819;48.798;11.770;2023-09-12T00:21:58;97275.00;;;20.10
80496;BMP180;69819;48.798;11.770;2023-09-12T00:24:24;97277.00;;;20.00
80496;BMP180;69819;48.798;11.770;2023-09-12T00:26:50;97281.00;;;20.00
80496;BMP180;69819;48.798;11.770;2023-09-12T00:29:16;97277.00;;;19.90
80496;BMP180;69819;48.798;11.770;2023-09-12T00:31:42;97273.00;;;19.90
80496;BMP180;69819;48.798;11.770;2023-09-12T00:34:08;97277.00;;;19.80
80496;BMP180;69819;48.798;11.770;2023-09-12T00:36:34;97275.00;;;19.80
80496;BMP180;69819;48.798;11.770;2023-09-12T00:38:59;97259.00;;;19.70
80496;BMP180;69819;48.798;11.770;2023-09-12T00:41:25;97269.00;;;19.70
80496;BMP180;69819;48.798;11.770;2023-09-12T00:43:51;97267.00;;;19.60
80496;BMP180;69819;48.798;11.770;2023-09-12T00:46:21;97266.00;;;19.60
80496;BMP180;69819;48.798;11.770;2023-09-12T00:48:49;97261.00;;;19.50
80496;BMP180;69819;48.798;11.770;2023-09-12T00:51:15;97239.00;;;19.50
80496;BMP180;69819;48.798;11.770;2023-09-12T00:53:43;97248.00;;;19.50
80496;BMP180;69819;48.798;11.770;2023-09-12T00:56:10;97244.00;;;19.40
80496;BMP180;69819;48.798;11.770;2023-09-12T00:58:36;97241.00;;;19.40
80496;BMP180;69819;48.798;11.770;2023-09-12T01:01:02;97241.00;;;19.40
80496;BMP180;69819;48.798;11.770;2023-09-12T01:03:29;97244.00;;;19.30
80496;BMP180;69819;48.798;11.770;2023-09-12T01:05:57;97215.00;;;19.30
80496;BMP180;69819;48.798;11.770;2023-09-12T01:08:24;97233.00;;;19.30
80496;BMP180;69819;48.798;11.770;2023-09-12T01:10:52;97230.00;;;19.20
80496;BMP180;69819;48.798;11.770;2023-09-12T01:13:19;97241.00;;;19.20
80496;BMP180;69819;48.798;11.770;2023-09-12T01:15:45;97244.00;;;19.20
80496;BMP180;69819;48.798;11.770;2023-09-12T01:18:11;97237.00;;;19.20
80496;BMP180;69819;48.798;11.770;2023-09-12T01:20:42;97240.00;;;19.10
80496;BMP180;69819;48.798;11.770;2023-09-12T01:24:02;97245.00;;;19.00
80496;BMP180;69819;48.798;11.770;2023-09-12T01:29:35;97233.00;;;19.00
80496;BMP180;69819;48.798;11.770;2023-09-12T01:32:03;97232.00;;;18.90
80496;BMP180;69819;48.798;11.770;2023-09-12T01:34:29;97226.00;;;18.90
80496;BMP180;69819;48.798;11.770;2023-09-12T01:36:55;97238.00;;;18.90
80496;BMP180;69819;48.798;11.770;2023-09-12T01:39:21;97236.00;;;18.90
80496;BMP180;69819;48.798;11.770;2023-09-12T01:41:48;97244.00;;;18.80
80496;BMP180;69819;48.798;11.770;2023-09-12T01:44:15;97228.00;;;18.80
80496;BMP180;69819;48.798;11.770;2023-09-12T01:46:43;97176.00;;;18.80
80496;BMP180;69819;48.798;11.770;2023-09-12T01:49:11;97235.00;;;18.80
80496;BMP180;69819;48.798;11.770;2023-09-12T01:51:39;97218.00;;;18.80
80496;BMP180;69819;48.798;11.770;2023-09-12T01:54:06;97232.00;;;18.70
80496;BMP180;69819;48.798;11.770;2023-09-12T01:56:33;97212.00;;;18.70
80496;BMP180;69819;48.798;11.770;2023-09-12T01:59:00;97226.00;;;18.70
80496;BMP180;69819;48.798;11.770;2023-09-12T02:01:27;97211.00;;;18.70
80496;BMP180;69819;48.798;11.770;2023-09-12T02:03:53;97239.00;;;18.70
80496;BMP180;69819;48.798;11.770;2023-09-12T02:06:19;97237.00;;;18.70
80496;BMP180;69819;48.798;11.770;2023-09-12T02:08:45;97244.00;;;18.70
80496;BMP180;69819;48.798;11.770;2023-09-12T02:11:11;97238.00;;;18.70
80496;BMP180;69819;48.798;11.770;2023-09-12T02:13:37;97233.00;;;18.70
80496;BMP180;69819;48.798;11.770;2023-09-12T02:16:03;97239.00;;;18.70
80496;BMP180;69819;48.798;11.770;2023-09-12T02:18:29;97237.00;;;18.70
80496;BMP180;69819;48.798;11.770;2023-09-12T02:20:54;97235.00;;;18.60
80496;BMP180;69819;48.798;11.770;2023-09-12T02:23:21;97239.00;;;18.70
80496;BMP180;69819;48.798;11.770;2023-09-12T02:25:47;97216.00;;;18.70
80496;BMP180;69819;48.798;11.770;2023-09-12T02:28:13;97246.00;;;18.70
80496;BMP180;69819;48.798;11.770;2023-09-12T02:30:39;97246.00;;;18.70
80496;BMP180;69819;48.798;11.770;2023-09-12T02:33:08;97235.00;;;18.70
80496;BMP180;69819;48.798;11.770;2023-09-12T02:35:34;97233.00;;;18.60
80496;BMP180;69819;48.798;11.770;2023-09-12T02:38:00;97254.00;;;18.60
80496;BMP180;69819;48.798;11.770;2023-09-12T02:40:26;97262.00;;;18.70
80496;BMP180;69819;48.798;11.770;2023-09-12T02:42:52;97265.00;;;18.60
80496;BMP180;69819;48.798;11.770;2023-09-12T02:45:18;97261.00;;;18.60
80496;BMP180;69819;48.798;11.770;2023-09-12T02:47:44;97266.00;;;18.60
80496;BMP180;69819;48.798;11.770;2023-09-12T02:50:12;97258.00;;;18.60
80496;BMP180;69819;48.798;11.770;2023-09-12T02:52:37;97255.00;;;18.60
80496;BMP180;69819;48.798;11.770;2023-09-12T02:55:04;97245.00;;;18.60
80496;BMP180;69819;48.798;11.770;2023-09-12T02:57:30;97247.00;;;18.60
80496;BMP180;69819;48.798;11.770;2023-09-12T02:59:55;97254.00;;;18.60
80496;BMP180;69819;48.798;11.770;2023-09-12T03:02:21;97253.00;;;18.60
80496;BMP180;69819;48.798;11.770;2023-09-12T03:04:47;97260.00;;;18.60
80496;BMP180;69819;48.798;11.770;2023-09-12T03:07:13;97249.00;;;18.60
80496;BMP180;69819;48.798;11.770;2023-09-12T03:09:39;97258.00;;;18.60
80496;BMP180;69819;48.798;11.770;2023-09-12T03:12:05;97244.00;;;18.60
80496;BMP180;69819;48.798;11.770;2023-09-12T03:14:31;97260.00;;;18.50
80496;BMP180;69819;48.798;11.770;2023-09-12T03:16:57;97252.00;;;18.50
80496;BMP180;69819;48.798;11.770;2023-09-12T03:19:23;97252.00;;;18.50
80496;BMP180;69819;48.798;11.770;2023-09-12T03:21:49;97253.00;;;18.50
80496;BMP180;69819;48.798;11.770;2023-09-12T03:24:15;97237.00;;;18.40
80496;BMP180;69819;48.798;11.770;2023-09-12T03:26:44;97237.00;;;18.40
80496;BMP180;69819;48.798;11.770;2023-09-12T03:29:10;97244.00;;;18.40
80496;BMP180;69819;48.798;11.770;2023-09-12T03:31:36;97247.00;;;18.30
80496;BMP180;69819;48.798;11.770;2023-09-12T03:34:02;97247.00;;;18.30
80496;BMP180;69819;48.798;11.770;2023-09-12T03:36:27;97256.00;;;18.30
80496;BMP180;69819;48.798;11.770;2023-09-12T03:38:53;97243.00;;;18.20
80496;BMP180;69819;48.798;11.770;2023-09-12T03:41:19;97243.00;;;18.20
80496;BMP180;69819;48.798;11.770;2023-09-12T03:43:47;97226.00;;;18.20
80496;BMP180;69819;48.798;11.770;2023-09-12T03:46:13;97244.00;;;18.20
80496;BMP180;69819;48.798;11.770;2023-09-12T03:48:40;97243.00;;;18.20
80496;BMP180;69819;48.798;11.770;2023-09-12T03:51:05;97248.00;;;18.20
80496;BMP180;69819;48.798;11.770;2023-09-12T03:53:31;97248.00;;;18.20
80496;BMP180;69819;48.798;11.770;2023-09-12T03:55:58;97245.00;;;18.20
80496;BMP180;69819;48.798;11.770;2023-09-12T03:58:25;97218.00;;;18.20
80496;BMP180;69819;48.798;11.770;2023-09-12T04:00:51;97233.00;;;18.20
80496;BMP180;69819;48.798;11.770;2023-09-12T04:03:16;97253.00;;;18.20
80496;BMP180;69819;48.798;11.770;2023-09-12T04:05:43;97243.00;;;18.20
80496;BMP180;69819;48.798;11.770;2023-09-12T04:08:08;97254.00;;;18.20
80496;BMP180;69819;48.798;11.770;2023-09-12T04:10:34;97259.00;;;18.20
80496;BMP180;69819;48.798;11.770;2023-09-12T04:13:00;97249.00;;;18.20
80496;BMP180;69819;48.798;11.770;2023-09-12T04:15:26;97254.00;;;18.20
80496;BMP180;69819;48.798;11.770;2023-09-12T04:17:52;97260.00;;;18.20
80496;BMP180;69819;48.798;11.770;2023-09-12T04:20:18;97263.00;;;18.20
80496;BMP180;69819;48.798;11.770;2023-09-12T04:22:44;97255.00;;;18.20
80496;BMP180;69819;48.798;11.770;2023-09-12T04:25:10;97262.00;;;18.20
80496;BMP180;69819;48.798;11.770;2023-09-12T04:27:36;97277.00;;;18.20
80496;BMP180;69819;48.798;11.770;2023-09-12T04:30:04;97272.00;;;18.20
80496;BMP180;69819;48.798;11.770;2023-09-12T04:32:30;97270.00;;;18.20
80496;BMP180;69819;48.798;11.770;2023-09-12T04:34:56;97254.00;;;18.20
80496;BMP180;69819;48.798;11.770;2023-09-12T04:37:22;97268.00;;;18.20
80496;BMP180;69819;48.798;11.770;2023-09-12T04:39:48;97267.00;;;18.20
80496;BMP180;69819;48.798;11.770;2023-09-12T04:42:14;97261.00;;;18.20
80496;BMP180;69819;48.798;11.770;2023-09-12T04:44:41;97270.00;;;18.20
80496;BMP180;69819;48.798;11.770;2023-09-12T04:47:08;97275.00;;;18.20
80496;BMP180;69819;48.798;11.770;2023-09-12T04:49:35;97266.00;;;18.10
80496;BMP180;69819;48.798;11.770;2023-09-12T04:52:01;97270.00;;;18.20
80496;BMP180;69819;48.798;11.770;2023-09-12T04:54:27;97255.00;;;18.20
80496;BMP180;69819;48.798;11.770;2023-09-12T04:56:53;97268.00;;;18.20
80496;BMP180;69819;48.798;11.770;2023-09-12T04:59:19;97272.00;;;18.20
80496;BMP180;69819;48.798;11.770;2023-09-12T05:01:45;97275.00;;;18.20
80496;BMP180;69819;48.798;11.770;2023-09-12T05:04:11;97272.00;;;18.20
80496;BMP180;69819;48.798;11.770;2023-09-12T05:06:37;97266.00;;;18.20
80496;BMP180;69819;48.798;11.770;2023-09-12T05:09:04;97255.00;;;18.30
80496;BMP180;69819;48.798;11.770;2023-09-12T05:11:31;97260.00;;;18.30
80496;BMP180;69819;48.798;11.770;2023-09-12T05:13:57;97262.00;;;18.40
80496;BMP180;69819;48.798;11.770;2023-09-12T05:16:25;97266.00;;;18.40
80496;BMP180;69819;48.798;11.770;2023-09-12T05:18:51;97255.00;;;18.50
80496;BMP180;69819;48.798;11.770;2023-09-12T05:21:17;97270.00;;;18.60
80496;BMP180;69819;48.798;11.770;2023-09-12T05:23:44;97268.00;;;18.70
80496;BMP180;69819;48.798;11.770;2023-09-12T05:26:10;97271.00;;;18.90
80496;BMP180;69819;48.798;11.770;2023-09-12T05:28:37;97273.00;;;19.10
80496;BMP180;69819;48.798;11.770;2023-09-12T05:31:03;97272.00;;;19.30
80496;BMP180;69819;48.798;11.770;2023-09-12T05:33:29;97276.00;;;19.40
80496;BMP180;69819;48.798;11.770;2023-09-12T05:35:55;97279.00;;;19.70
80496;BMP180;69819;48.798;11.770;2023-09-12T05:38:21;97273.00;;;20.00
80496;BMP180;69819;48.798;11.770;2023-09-12T05:40:48;97268.00;;;20.30
80496;BMP180;69819;48.798;11.770;2023-09-12T05:43:17;97280.00;;;20.60
80496;BMP180;69819;48.798;11.770;2023-09-12T05:45:44;97287.00;;;21.00
80496;BMP180;69819;48.798;11.770;2023-09-12T05:48:10;97289.00;;;21.40
80496;BMP180;69819;48.798;11.770;2023-09-12T05:50:37;97293.00;;;21.80
80496;BMP180;69819;48.798;11.770;2023-09-12T05:53:03;97289.00;;;22.20
80496;BMP180;69819;48.798;11.770;2023-09-12T05:55:29;97296.00;;;22.60
80496;BMP180;69819;48.798;11.770;2023-09-12T05:57:55;97299.00;;;23.10
80496;BMP180;69819;48.798;11.770;2023-09-12T06:00:21;97297.00;;;23.60
80496;BMP180;69819;48.798;11.770;2023-09-12T06:02:48;97294.00;;;24.00
80496;BMP180;69819;48.798;11.770;2023-09-12T06:05:15;97285.00;;;24.60
80496;BMP180;69819;48.798;11.770;2023-09-12T06:07:41;97307.00;;;25.00
80496;BMP180;69819;48.798;11.770;2023-09-12T06:10:10;97288.00;;;25.50
80496;BMP180;69819;48.798;11.770;2023-09-12T06:12:36;97287.00;;;25.90
80496;BMP180;69819;48.798;11.770;2023-09-12T06:15:03;97313.00;;;26.20
80496;BMP180;69819;48.798;11.770;2023-09-12T06:17:30;97318.00;;;26.60
80496;BMP180;69819;48.798;11.770;2023-09-12T06:19:56;97319.00;;;26.90
80496;BMP180;69819;48.798;11.770;2023-09-12T06:22:22;97327.00;;;27.20
80496;BMP180;69819;48.798;11.770;2023-09-12T06:24:50;97319.00;;;27.50
80496;BMP180;69819;48.798;11.770;2023-09-12T06:27:16;97306.00;;;27.80
80496;BMP180;69819;48.798;11.770;2023-09-12T06:29:47;97312.00;;;28.20
80496;BMP180;69819;48.798;11.770;2023-09-12T06:32:15;97317.00;;;28.50
80496;BMP180;69819;48.798;11.770;2023-09-12T06:34:41;97317.00;;;29.00
80496;BMP180;69819;48.798;11.770;2023-09-12T06:37:08;97322.00;;;29.50
80496;BMP180;69819;48.798;11.770;2023-09-12T06:39:34;97313.00;;;30.00
80496;BMP180;69819;48.798;11.770;2023-09-12T06:42:00;97326.00;;;30.50
80496;BMP180;69819;48.798;11.770;2023-09-12T06:44:26;97322.00;;;31.10
80496;BMP180;69819;48.798;11.770;2023-09-12T06:46:52;97320.00;;;31.60
80496;BMP180;69819;48.798;11.770;2023-09-12T06:49:19;97329.00;;;32.10
80496;BMP180;69819;48.798;11.770;2023-09-12T06:51:45;97328.00;;;32.60
80496;BMP180;69819;48.798;11.770;2023-09-12T06:54:11;97327.00;;;33.10
80496;BMP180;69819;48.798;11.770;2023-09-12T06:56:38;97325.00;;;33.50
80496;BMP180;69819;48.798;11.770;2023-09-12T06:59:07;97331.00;;;33.90
80496;BMP180;69819;48.798;11.770;2023-09-12T07:01:34;97331.00;;;34.30
80496;BMP180;69819;48.798;11.770;2023-09-12T07:04:00;97339.00;;;34.60
80496;BMP180;69819;48.798;11.770;2023-09-12T07:06:26;97334.00;;;35.00
80496;BMP180;69819;48.798;11.770;2023-09-12T07:08:52;97324.00;;;35.30
80496;BMP180;69819;48.798;11.770;2023-09-12T07:11:18;97330.00;;;35.60
80496;BMP180;69819;48.798;11.770;2023-09-12T07:13:45;97336.00;;;35.90
80496;BMP180;69819;48.798;11.770;2023-09-12T07:16:12;97339.00;;;36.20
80496;BMP180;69819;48.798;11.770;2023-09-12T07:18:38;97338.00;;;36.50
80496;BMP180;69819;48.798;11.770;2023-09-12T07:21:05;97336.00;;;36.80
80496;BMP180;69819;48.798;11.770;2023-09-12T07:23:32;97339.00;;;37.10
80496;BMP180;69819;48.798;11.770;2023-09-12T07:25:58;97347.00;;;37.30
80496;BMP180;69819;48.798;11.770;2023-09-12T07:28:26;97349.00;;;37.60
80496;BMP180;69819;48.798;11.770;2023-09-12T07:30:57;97343.00;;;38.00
80496;BMP180;69819;48.798;11.770;2023-09-12T07:33:23;97352.00;;;38.40
80496;BMP180;69819;48.798;11.770;2023-09-12T07:35:52;97335.00;;;38.70
80496;BMP180;69819;48.798;11.770;2023-09-12T07:38:20;97348.00;;;39.00
80496;BMP180;69819;48.798;11.770;2023-09-12T07:40:47;97344.00;;;39.20
80496;BMP180;69819;48.798;11.770;2023-09-12T07:43:13;97353.00;;;39.40
80496;BMP180;69819;48.798;11.770;2023-09-12T07:45:39;97348.00;;;39.60
80496;BMP180;69819;48.798;11.770;2023-09-12T07:48:09;97346.00;;;39.80
80496;BMP180;69819;48.798;11.770;2023-09-12T07:50:37;97332.00;;;40.10
80496;BMP180;69819;48.798;11.770;2023-09-12T07:53:05;97357.00;;;40.40
80496;BMP180;69819;48.798;11.770;2023-09-12T07:55:31;97358.00;;;40.70
80496;BMP180;69819;48.798;11.770;2023-09-12T07:58:02;97351.00;;;41.00
80496;BMP180;69819;48.798;11.770;2023-09-12T08:00:28;97358.00;;;41.20
80496;BMP180;69819;48.798;11.770;2023-09-12T08:02:54;97362.00;;;41.40
80496;BMP180;69819;48.798;11.770;2023-09-12T08:05:20;97355.00;;;41.50
80496;BMP180;69819;48.798;11.770;2023-09-12T08:07:46;97360.00;;;41.60
80496;BMP180;69819;48.798;11.770;2023-09-12T08:10:12;97366.00;;;41.70
80496;BMP180;69819;48.798;11.770;2023-09-12T08:12:38;97364.00;;;41.70
80496;BMP180;69819;48.798;11.770;2023-09-12T08:15:05;97367.00;;;41.70
80496;BMP180;69819;48.798;11.770;2023-09-12T08:17:32;97363.00;;;41.70
80496;BMP180;69819;48.798;11.770;2023-09-12T08:19:58;97369.00;;;41.80
80496;BMP180;69819;48.798;11.770;2023-09-12T08:22:24;97363.00;;;42.00
80496;BMP180;69819;48.798;11.770;2023-09-12T08:24:49;97371.00;;;42.10
80496;BMP180;69819;48.798;11.770;2023-09-12T08:27:15;97365.00;;;42.20
80496;BMP180;69819;48.798;11.770;2023-09-12T08:29:41;97365.00;;;42.30
80496;BMP180;69819;48.798;11.770;2023-09-12T08:32:09;97371.00;;;42.30
80496;BMP180;69819;48.798;11.770;2023-09-12T08:34:35;97379.00;;;42.30
80496;BMP180;69819;48.798;11.770;2023-09-12T08:37:00;97377.00;;;42.30
80496;BMP180;69819;48.798;11.770;2023-09-12T08:39:33;97379.00;;;42.30
80496;BMP180;69819;48.798;11.770;2023-09-12T08:42:06;97375.00;;;42.30
80496;BMP180;69819;48.798;11.770;2023-09-12T08:44:33;97378.00;;;42.10
80496;BMP180;69819;48.798;11.770;2023-09-12T08:47:00;97382.00;;;42.10
80496;BMP180;69819;48.798;11.770;2023-09-12T08:49:27;97371.00;;;42.00
80496;BMP180;69819;48.798;11.770;2023-09-12T08:51:54;97370.00;;;42.00
80496;BMP180;69819;48.798;11.770;2023-09-12T08:54:20;97357.00;;;42.00
80496;BMP180;69819;48.798;11.770;2023-09-12T08:56:46;97374.00;;;42.00
80496;BMP180;69819;48.798;11.770;2023-09-12T08:59:12;97380.00;;;41.90
80496;BMP180;69819;48.798;11.770;2023-09-12T09:01:38;97374.00;;;41.90
80496;BMP180;69819;48.798;11.770;2023-09-12T09:04:05;97379.00;;;41.90
80496;BMP180;69819;48.798;11.770;2023-09-12T09:06:32;97381.00;;;41.70
80496;BMP180;69819;48.798;11.770;2023-09-12T09:09:06;97370.00;;;41.60
80496;BMP180;69819;48.798;11.770;2023-09-12T09:11:34;97364.00;;;41.50
80496;BMP180;69819;48.798;11.770;2023-09-12T09:14:02;97382.00;;;41.40
80496;BMP180;69819;48.798;11.770;2023-09-12T09:16:29;97370.00;;;41.20
80496;BMP180;69819;48.798;11.770;2023-09-12T09:19:03;97384.00;;;41.00
80496;BMP180;69819;48.798;11.770;2023-09-12T09:21:36;97380.00;;;40.70
80496;BMP180;69819;48.798;11.770;2023-09-12T09:24:07;97362.00;;;40.40
80496;BMP180;69819;48.798;11.770;2023-09-12T09:26:49;97368.00;;;40.00
80496;BMP180;69819;48.798;11.770;2023-09-12T09:29:27;97369.00;;;39.80
80496;BMP180;69819;48.798;11.770;2023-09-12T09:32:02;97358.00;;;39.50
80496;BMP180;69819;48.798;11.770;2023-09-12T09:34:31;97353.00;;;39.30
80496;BMP180;69819;48.798;11.770;2023-09-12T09:36:58;97368.00;;;39.00
80496;BMP180;69819;48.798;11.770;2023-09-12T09:39:28;97356.00;;;38.80
80496;BMP180;69819;48.798;11.770;2023-09-12T09:41:57;97363.00;;;38.60
80496;BMP180;69819;48.798;11.770;2023-09-12T09:44:25;97357.00;;;38.40
80496;BMP180;69819;48.798;11.770;2023-09-12T09:47:00;97353.00;;;38.10
80496;BMP180;69819;48.798;11.770;2023-09-12T09:49:32;97360.00;;;38.00
80496;BMP180;69819;48.798;11.770;2023-09-12T09:52:03;97352.00;;;37.90
80496;BMP180;69819;48.798;11.770;2023-09-12T09:54:29;97353.00;;;37.80
80496;BMP180;69819;48.798;11.770;2023-09-12T09:56:57;97355.00;;;37.80
80496;BMP180;69819;48.798;11.770;2023-09-12T09:59:25;97351.00;;;37.80
80496;BMP180;69819;48.798;11.770;2023-09-12T10:01:57;97344.00;;;37.80
80496;BMP180;69819;48.798;11.770;2023-09-12T10:04:26;97348.00;;;37.80
80496;BMP180;69819;48.798;11.770;2023-09-12T10:06:56;97344.00;;;37.70
80496;BMP180;69819;48.798;11.770;2023-09-12T10:09:25;97344.00;;;37.60
80496;BMP180;69819;48.798;11.770;2023-09-12T10:11:54;97336.00;;;37.50
80496;BMP180;69819;48.798;11.770;2023-09-12T10:14:23;97335.00;;;37.40
80496;BMP180;69819;48.798;11.770;2023-09-12T10:16:50;97334.00;;;37.40
80496;BMP180;69819;48.798;11.770;2023-09-12T10:19:35;97320.00;;;37.30
80496;BMP180;69819;48.798;11.770;2023-09-12T10:22:39;97338.00;;;37.20
80496;BMP180;69819;48.798;11.770;2023-09-12T10:25:08;97316.00;;;37.30
80496;BMP180;69819;48.798;11.770;2023-09-12T10:27:34;97326.00;;;37.30
80496;BMP180;69819;48.798;11.770;2023-09-12T10:30:02;97322.00;;;37.20
80496;BMP180;69819;48.798;11.770;2023-09-12T10:32:31;97321.00;;;37.20
80496;BMP180;69819;48.798;11.770;2023-09-12T10:34:59;97314.00;;;37.10
80496;BMP180;69819;48.798;11.770;2023-09-12T10:37:27;97319.00;;;36.90
80496;BMP180;69819;48.798;11.770;2023-09-12T10:39:56;97313.00;;;36.80
80496;BMP180;69819;48.798;11.770;2023-09-12T10:42:25;97313.00;;;36.50
80496;BMP180;69819;48.798;11.770;2023-09-12T10:44:54;97311.00;;;36.30
80496;BMP180;69819;48.798;11.770;2023-09-12T10:47:21;97304.00;;;36.10
80496;BMP180;69819;48.798;11.770;2023-09-12T10:49:48;97300.00;;;35.80
80496;BMP180;69819;48.798;11.770;2023-09-12T10:52:29;97299.00;;;35.60
80496;BMP180;69819;48.798;11.770;2023-09-12T10:54:56;97317.00;;;35.40
80496;BMP180;69819;48.798;11.770;2023-09-12T10:57:22;97296.00;;;35.10
80496;BMP180;69819;48.798;11.770;2023-09-12T11:02:35;97306.00;;;34.60
80496;BMP180;69819;48.798;11.770;2023-09-12T11:05:07;97304.00;;;34.40
80496;BMP180;69819;48.798;11.770;2023-09-12T11:08:00;97288.00;;;34.20
80496;BMP180;69819;48.798;11.770;2023-09-12T11:10:27;97295.00;;;34.10
80496;BMP180;69819;48.798;11.770;2023-09-12T11:12:55;97282.00;;;34.00
80496;BMP180;69819;48.798;11.770;2023-09-12T11:15:27;97288.00;;;33.90
80496;BMP180;69819;48.798;11.770;2023-09-12T11:18:06;97288.00;;;33.80
80496;BMP180;69819;48.798;11.770;2023-09-12T11:23:19;97296.00;;;33.70
80496;BMP180;69819;48.798;11.770;2023-09-12T11:25:45;97272.00;;;33.70
80496;BMP180;69819;48.798;11.770;2023-09-12T11:28:11;97274.00;;;33.70
80496;BMP180;69819;48.798;11.770;2023-09-12T11:30:56;97286.00;;;33.60
80496;BMP180;69819;48.798;11.770;2023-09-12T11:33:26;97279.00;;;33.70
80496;BMP180;69819;48.798;11.770;2023-09-12T11:35:56;97282.00;;;33.70
80496;BMP180;69819;48.798;11.770;2023-09-12T11:38:28;97276.00;;;33.70
80496;BMP180;69819;48.798;11.770;2023-09-12T11:40:55;97279.00;;;33.80
80496;BMP180;69819;48.798;11.770;2023-09-12T11:43:26;97276.00;;;33.80
80496;BMP180;69819;48.798;11.770;2023-09-12T11:45:55;97286.00;;;33.80
80496;BMP180;69819;48.798;11.770;2023-09-12T11:48:21;97271.00;;;33.80
80496;BMP180;69819;48.798;11.770;2023-09-12T11:50:52;97271.00;;;33.80
80496;BMP180;69819;48.798;11.770;2023-09-12T11:53:23;97277.00;;;33.80
80496;BMP180;69819;48.798;11.770;2023-09-12T11:55:57;97270.00;;;33.80
80496;BMP180;69819;48.798;11.770;2023-09-12T11:58:25;97273.00;;;33.80
80496;BMP180;69819;48.798;11.770;2023-09-12T12:00:55;97266.00;;;33.90
80496;BMP180;69819;48.798;11.770;2023-09-12T12:03:24;97258.00;;;33.80
80496;BMP180;69819;48.798;11.770;2023-09-12T12:05:51;97257.00;;;33.80
80496;BMP180;69819;48.798;11.770;2023-09-12T12:08:18;97258.00;;;33.80
80496;BMP180;69819;48.798;11.770;2023-09-12T12:10:52;97260.00;;;33.80
80496;BMP180;69819;48.798;11.770;2023-09-12T12:13:20;97259.00;;;33.80
80496;BMP180;69819;48.798;11.770;2023-09-12T12:15:47;97267.00;;;33.90
80496;BMP180;69819;48.798;11.770;2023-09-12T12:18:13;97257.00;;;33.90
80496;BMP180;69819;48.798;11.770;2023-09-12T12:20:39;97256.00;;;34.00
80496;BMP180;69819;48.798;11.770;2023-09-12T12:23:05;97261.00;;;34.00
80496;BMP180;69819;48.798;11.770;2023-09-12T12:25:35;97267.00;;;34.00
80496;BMP180;69819;48.798;11.770;2023-09-12T12:28:02;97255.00;;;34.10
80496;BMP180;69819;48.798;11.770;2023-09-12T12:30:34;97252.00;;;34.10
80496;BMP180;69819;48.798;11.770;2023-09-12T12:33:10;97240.00;;;34.10
80496;BMP180;69819;48.798;11.770;2023-09-12T12:35:36;97252.00;;;34.20
80496;BMP180;69819;48.798;11.770;2023-09-12T12:38:03;97249.00;;;34.30
80496;BMP180;69819;48.798;11.770;2023-09-12T12:40:28;97245.00;;;34.30
80496;BMP180;69819;48.798;11.770;2023-09-12T12:42:54;97253.00;;;34.30
80496;BMP180;69819;48.798;11.770;2023-09-12T12:45:22;97248.00;;;34.30
80496;BMP180;69819;48.798;11.770;2023-09-12T12:48:00;97227.00;;;34.20
80496;BMP180;69819;48.798;11.770;2023-09-12T12:50:26;97229.00;;;34.20
80496;BMP180;69819;48.798;11.770;2023-09-12T12:52:52;97234.00;;;34.20
80496;BMP180;69819;48.798;11.770;2023-09-12T12:55:21;97226.00;;;34.20
80496;BMP180;69819;48.798;11.770;2023-09-12T12:57:48;97209.00;;;34.20
80496;BMP180;69819;48.798;11.770;2023-09-12T13:00:16;97229.00;;;34.20
80496;BMP180;69819;48.798;11.770;2023-09-12T13:02:44;97203.00;;;34.30
80496;BMP180;69819;48.798;11.770;2023-09-12T13:05:25;97222.00;;;34.30
80496;BMP180;69819;48.798;11.770;2023-09-12T13:07:51;97222.00;;;34.40
80496;BMP180;69819;48.798;11.770;2023-09-12T13:10:18;97215.00;;;34.40
80496;BMP180;69819;48.798;11.770;2023-09-12T13:12:44;97221.00;;;34.50
80496;BMP180;69819;48.798;11.770;2023-09-12T13:15:12;97213.00;;;34.50
80496;BMP180;69819;48.798;11.770;2023-09-12T13:17:38;97209.00;;;34.60
80496;BMP180;69819;48.798;11.770;2023-09-12T13:20:05;97200.00;;;34.60
80496;BMP180;69819;48.798;11.770;2023-09-12T13:22:34;97200.00;;;34.60
80496;BMP180;69819;48.798;11.770;2023-09-12T13:25:01;97208.00;;;34.60
80496;BMP180;69819;48.798;11.770;2023-09-12T13:27:28;97213.00;;;34.60
80496;BMP180;69819;48.798;11.770;2023-09-12T13:29:53;97223.00;;;34.60
80496;BMP180;69819;48.798;11.770;2023-09-12T13:32:19;97207.00;;;34.60
80496;BMP180;69819;48.798;11.770;2023-09-12T13:34:46;97199.00;;;34.60
80496;BMP180;69819;48.798;11.770;2023-09-12T13:37:12;97207.00;;;34.60
80496;BMP180;69819;48.798;11.770;2023-09-12T13:39:38;97210.00;;;34.60
80496;BMP180;69819;48.798;11.770;2023-09-12T13:42:06;97203.00;;;34.60
80496;BMP180;69819;48.798;11.770;2023-09-12T13:44:34;97198.00;;;34.60
80496;BMP180;69819;48.798;11.770;2023-09-12T13:47:00;97204.00;;;34.60
80496;BMP180;69819;48.798;11.770;2023-09-12T13:49:25;97191.00;;;34.60
80496;BMP180;69819;48.798;11.770;2023-09-12T13:51:51;97189.00;;;34.60
80496;BMP180;69819;48.798;11.770;2023-09-12T13:54:17;97194.00;;;34.60
80496;BMP180;69819;48.798;11.770;2023-09-12T13:56:44;97194.00;;;34.60
80496;BMP180;69819;48.798;11.770;2023-09-12T13:59:10;97172.00;;;34.50
80496;BMP180;69819;48.798;11.770;2023-09-12T14:01:37;97188.00;;;34.50
80496;BMP180;69819;48.798;11.770;2023-09-12T14:04:04;97185.00;;;34.50
80496;BMP180;69819;48.798;11.770;2023-09-12T14:06:31;97176.00;;;34.50